TimeMST,TemperatureF,Dew PointF,Humidity,Sea Level PressureIn,VisibilityMPH,Wind Direction,Wind SpeedMPH,Gust SpeedMPH,PrecipitationIn,Events,Conditions,WindDirDegrees,DateUTC
12:53 AM,12.0,9.0,88,30.30,2.5,Calm,Calm,-,N/A,,Mostly Cloudy,0,2013-01-07 07:53:00
1:53 AM,10.9,7.0,84,30.31,2.5,NNW,5.8,-,N/A,,Scattered Clouds,340,2013-01-07 08:53:00
2:53 AM,12.9,9.0,84,30.32,2.0,NNW,4.6,-,N/A,,Mostly Cloudy,340,2013-01-07 09:53:00
3:53 AM,12.9,10.0,88,30.32,2.5,NE,5.8,-,0.00,,Mostly Cloudy,50,2013-01-07 10:53:00
4:29 AM,12.9,10.0,88,30.17,3.0,SE,4.6,-,N/A,,Mostly Cloudy,140,2013-01-07 11:29:00
4:53 AM,12.9,10.0,88,30.29,4.0,SE,5.8,-,N/A,,Mostly Cloudy,140,2013-01-07 11:53:00
5:44 AM,10.9,8.1,88,30.17,2.5,NW,3.5,-,N/A,,Scattered Clouds,320,2013-01-07 12:44:00
5:53 AM,8.1,6.1,92,30.34,2.5,North,6.9,-,N/A,,Scattered Clouds,360,2013-01-07 12:53:00
6:32 AM,12.0,9.0,88,30.18,2.0,Calm,Calm,-,0.00,Snow,Light Snow,0,2013-01-07 13:32:00
6:53 AM,12.9,9.0,84,30.34,2.0,NNW,4.6,-,0.00,Snow,Light Snow,330,2013-01-07 13:53:00
7:01 AM,12.2,10.4,92,30.19,3.0,North,4.6,-,N/A,Snow,Light Snow,350,2013-01-07 14:01:00
7:14 AM,10.9,8.1,88,30.20,3.0,North,6.9,-,0.00,Snow,Light Snow,350,2013-01-07 14:14:00
7:51 AM,12.2,8.6,85,30.20,2.5,Calm,Calm,-,0.00,,Scattered Clouds,0,2013-01-07 14:51:00
7:52 AM,12.0,8.1,84,30.35,2.5,Calm,Calm,-,0.00,,Scattered Clouds,0,2013-01-07 14:52:00
8:18 AM,12.0,10.0,92,30.21,3.0,SSE,3.5,-,N/A,,Scattered Clouds,160,2013-01-07 15:18:00
8:53 AM,12.0,10.0,92,30.37,2.5,SE,4.6,-,N/A,,Scattered Clouds,140,2013-01-07 15:53:00
9:20 AM,14.0,10.9,88,30.23,2.5,SE,4.6,-,N/A,,Mostly Cloudy,140,2013-01-07 16:20:00
9:53 AM,15.1,12.0,88,30.40,2.5,SSE,5.8,-,N/A,,Mostly Cloudy,150,2013-01-07 16:53:00
10:07 AM,15.1,12.0,88,30.24,3.0,SSE,5.8,-,N/A,,Scattered Clouds,150,2013-01-07 17:07:00
10:53 AM,17.1,12.0,81,30.38,3.0,SE,8.1,-,N/A,,Haze,140,2013-01-07 17:53:00
11:53 AM,19.0,12.9,77,30.32,3.0,SSE,8.1,-,N/A,,Haze,160,2013-01-07 18:53:00
12:53 PM,21.9,14.0,72,30.35,3.0,North,15.0,-,N/A,,Haze,350,2013-01-07 19:53:00
1:53 PM,21.0,15.1,78,30.33,3.0,Calm,Calm,-,N/A,,Haze,0,2013-01-07 20:53:00
2:53 PM,21.9,14.0,72,30.32,3.0,NNW,4.6,-,N/A,,Haze,330,2013-01-07 21:53:00
3:53 PM,21.2,14.0,74,30.20,3.0,NNW,3.5,-,N/A,,Haze,340,2013-01-07 22:53:00
4:53 PM,19.9,14.0,78,30.33,3.0,NW,3.5,-,N/A,,Haze,310,2013-01-07 23:53:00
5:53 PM,19.9,14.0,78,30.35,3.0,Calm,Calm,-,N/A,,Haze,0,2013-01-08 00:53:00
6:53 PM,21.9,15.1,75,30.33,3.0,NNW,4.6,-,N/A,,Haze,330,2013-01-08 01:53:00
7:53 PM,21.0,16.0,81,30.32,3.0,North,3.5,-,N/A,,Haze,350,2013-01-08 02:53:00
8:53 PM,21.0,16.0,81,30.33,3.0,NNE,5.8,-,N/A,,Haze,30,2013-01-08 03:53:00
9:53 PM,21.9,16.0,78,30.31,3.0,South,3.5,-,N/A,,Haze,170,2013-01-08 04:53:00
10:53 PM,23.0,16.0,74,30.30,3.0,Calm,Calm,-,N/A,,Haze,0,2013-01-08 05:53:00
11:53 PM,23.0,17.1,78,30.29,5.0,Calm,Calm,-,N/A,,Haze,0,2013-01-08 06:53:00